CheckWX is a tool to help pilots better visualize weather data.  It is not intended as a substitute for an official pre-flight weather briefing.

04:35:25 UTC

KEUG METAR
Mahlon Sweet Field Airport
Eugene, Oregon, USA
Current

41 mins ago

KEUG 170354Z 18006KT 10SM SCT110 14/11 A2996 RMK AO2 SLP144 T01440106
Observed
Sep-17 @ 03:54 UTC
Wind
  • 180° at 6 KTS
Visibility
10 SM
Flight Rules
VFR
Cloud Levels
  • Scattered at 11,000' AGL
Temperature
14°C / 57°F
Dewpoint
11°C / 52°F
Humidity
82%
Altimeter
29.96" Hg
Pressure
1014.52 hPa
Previous

2 hours ago

KEUG 170254Z 00000KT 10SM FEW032 BKN100 16/12 A2995 RMK AO2 SLP140 T01610117 51015
Observed
Sep-17 @ 02:54 UTC
Visibility
10 SM
Flight Rules
VFR
Cloud Levels
  • Few at 3,200' AGL
  • Broken at 10,000' AGL
Temperature
16°C / 61°F
Dewpoint
12°C / 54°F
Humidity
77%
Altimeter
29.95" Hg
Pressure
1014.22 hPa
Previous

3 hours ago

KEUG 170154Z 27005KT 10SM FEW035 BKN110 17/11 A2994 RMK AO2 SLP137 TCU DSNT NW T01720111
Observed
Sep-17 @ 01:54 UTC
Wind
  • 270° at 5 KTS
Visibility
10 SM
Flight Rules
VFR
Cloud Levels
  • Few at 3,500' AGL
  • Broken at 11,000' AGL
Temperature
17°C / 63°F
Dewpoint
11°C / 52°F
Humidity
68%
Altimeter
29.94" Hg
Pressure
1013.92 hPa